Time;durP1;ratioP1;P1;durP2;ratioP2;P2;SDS_P1;SDS_P2;PMS_P1;PMS_P2;Temp;Humidity;BMP_temperature;BMP_pressure;BME280_temperature;BME280_humidity;BME280_pressure;Samples;Min_cycle;Max_cycle;Signal;HPM_P1;HPM_P2
2022/10/20 00:00:37;;;;;;;;;;;;;;;;;;5030032;28;19962;-61
2022/10/20 00:03:02;;;;;;;;;;;;;;;;;;5024828;28;20389;-62
2022/10/20 00:05:28;;;;;;;;;;;;;;;;;;5036932;28;19967;-61
2022/10/20 00:07:53;;;;;;;;;;;;;;;;;;5030496;28;19921;-61
2022/10/20 00:10:18;;;;;;;;;;;;;;;;;;5036441;28;19921;-61
2022/10/20 00:12:43;;;;;;;;;;;;;;;;;;5027904;28;20415;-61
2022/10/20 00:15:08;;;;;;;;;;;;;;;;;;5028819;28;20336;-61
2022/10/20 00:17:34;;;;;;;;;;;;;;;;;;5035321;28;19918;-61
2022/10/20 00:19:59;;;;;;;;;;;;;;;;;;5031819;28;19916;-61
2022/10/20 00:22:24;;;;;;;;;;;;;;;;;;5035614;28;20332;-62
2022/10/20 00:24:49;;;;;;;;;;;;;;;;;;5029647;28;19917;-61
2022/10/20 00:27:14;;;;;;;;;;;;;;;;;;5029577;28;20039;-61
2022/10/20 00:29:40;;;;;;;;;;;;;;;;;;5034328;28;20357;-61
2022/10/20 00:32:05;;;;;;;;;;;;;;;;;;5028967;28;19917;-61
2022/10/20 00:34:30;;;;;;;;;;;;;;;;;;5037773;28;19917;-62
2022/10/20 00:36:55;;;;;;;;;;;;;;;;;;5029767;28;19995;-62
2022/10/20 00:39:20;;;;;;;;;;;;;;;;;;5027299;28;20086;-62
2022/10/20 00:41:45;;;;;;;;;;;;;;;;;;5036156;28;20309;-62
2022/10/20 00:44:11;;;;;;;;;;;;;;;;;;5031516;28;20011;-62
2022/10/20 00:46:36;;;;;;;;;;;;;;;;;;5035649;28;19921;-62
2022/10/20 00:49:01;;;;;;;;;;;;;;;;;;5030171;28;19979;-62
2022/10/20 00:51:26;;;;;;;;;;;;;;;;;;5029225;28;19921;-61
2022/10/20 00:53:52;;;;;;;;;;;;;;;;;;5037883;28;19986;-61
2022/10/20 00:56:17;;;;;;;;;;;;;;;;;;5031848;28;19921;-61
2022/10/20 00:58:42;;;;;;;;;;;;;;;;;;5035894;28;19931;-61
2022/10/20 01:01:08;;;;;;;;;;;;;;;;;;5029065;28;19917;-61
2022/10/20 01:03:33;;;;;;;;;;;;;;;;;;5030274;28;20455;-61
2022/10/20 01:05:58;;;;;;;;;;;;;;;;;;5037136;28;19917;-62
2022/10/20 01:08:23;;;;;;;;;;;;;;;;;;5023392;28;20297;-62
2022/10/20 01:10:48;;;;;;;;;;;;;;;;;;5036843;28;20377;-61
2022/10/20 01:13:14;;;;;;;;;;;;;;;;;;5029765;28;19977;-61
2022/10/20 01:15:39;;;;;;;;;;;;;;;;;;5026056;28;20259;-62
2022/10/20 01:18:04;;;;;;;;;;;;;;;;;;5035199;28;19969;-61
2022/10/20 01:20:29;;;;;;;;;;;;;;;;;;5029401;28;20384;-62
2022/10/20 01:22:54;;;;;;;;;;;;;;;;;;5034245;28;19921;-62
2022/10/20 01:25:19;;;;;;;;;;;;;;;;;;5031397;28;19947;-61
2022/10/20 01:27:45;;;;;;;;;;;;;;;;;;5026741;28;19921;-62
2022/10/20 01:30:10;;;;;;;;;;;;;;;;;;5036850;28;19998;-62
2022/10/20 01:32:35;;;;;;;;;;;;;;;;;;5028973;28;20056;-62
2022/10/20 01:35:00;;;;;;;;;;;;;;;;;;5034564;28;19924;-61
2022/10/20 01:37:25;;;;;;;;;;;;;;;;;;5030282;28;20317;-61
2022/10/20 01:39:51;;;;;;;;;;;;;;;;;;5029639;28;19916;-62
2022/10/20 01:42:16;;;;;;;;;;;;;;;;;;5036954;28;19955;-62
2022/10/20 01:44:41;;;;;;;;;;;;;;;;;;5028370;28;19940;-61
2022/10/20 01:47:07;;;;;;;;;;;;;;;;;;5036965;28;19917;-61
2022/10/20 01:49:32;;;;;;;;;;;;;;;;;;5031852;28;20344;-61
2022/10/20 01:51:57;;;;;;;;;;;;;;;;;;5032139;28;19917;-61
2022/10/20 01:54:22;;;;;;;;;;;;;;;;;;5040158;28;20375;-62
2022/10/20 01:56:47;;;;;;;;;;;;;;;;;;5034301;28;20287;-61
2022/10/20 01:59:13;;;;;;;;;;;;;;;;;;5039438;28;19920;-62
2022/10/20 02:01:38;;;;;;;;;;;;;;;;;;5031789;28;20332;-61
2022/10/20 02:04:03;;;;;;;;;;;;;;;;;;5034594;28;19923;-62
2022/10/20 02:06:28;;;;;;;;;;;;;;;;;;5053177;28;19924;-62
2022/10/20 02:08:53;;;;;;;;;;;;;;;;;;5031939;28;19923;-63
2022/10/20 02:11:19;;;;;;;;;;;;;;;;;;5038084;28;19920;-61
2022/10/20 02:13:44;;;;;;;;;;;;;;;;;;5032144;28;20121;-61
2022/10/20 02:16:09;;;;;;;;;;;;;;;;;;5034727;28;19917;-63
2022/10/20 02:18:34;;;;;;;;;;;;;;;;;;5039564;28;19924;-61
2022/10/20 02:20:59;;;;;;;;;;;;;;;;;;5033222;28;20428;-61
2022/10/20 02:23:24;;;;;;;;;;;;;;;;;;5038570;28;19921;-61
2022/10/20 02:25:50;;;;;;;;;;;;;;;;;;5032813;28;20408;-62
2022/10/20 02:28:15;;;;;;;;;;;;;;;;;;5032613;28;20011;-61
2022/10/20 02:30:40;;;;;;;;;;;;;;;;;;5035973;28;19921;-61
2022/10/20 02:33:05;;;;;;;;;;;;;;;;;;5030135;28;20445;-61
2022/10/20 02:35:30;;;;;;;;;;;;;;;;;;5039277;28;20000;-61
2022/10/20 02:37:55;;;;;;;;;;;;;;;;;;5031095;28;20147;-61
2022/10/20 02:40:21;;;;;;;;;;;;;;;;;;5034976;28;20010;-61
2022/10/20 02:42:46;;;;;;;;;;;;;;;;;;5036807;28;19971;-61
2022/10/20 02:45:11;;;;;;;;;;;;;;;;;;5032316;28;20300;-61
2022/10/20 02:47:36;;;;;;;;;;;;;;;;;;5036955;28;19925;-62
2022/10/20 02:50:02;;;;;;;;;;;;;;;;;;5033320;28;19991;-62
2022/10/20 02:52:27;;;;;;;;;;;;;;;;;;5030524;28;19927;-61
2022/10/20 02:54:52;;;;;;;;;;;;;;;;;;5037412;28;19921;-61
2022/10/20 02:57:17;;;;;;;;;;;;;;;;;;5026363;28;20376;-61
2022/10/20 02:59:42;;;;;;;;;;;;;;;;;;5034812;28;19924;-62
2022/10/20 03:02:08;;;;;;;;;;;;;;;;;;5030369;28;19979;-61
2022/10/20 03:04:33;;;;;;;;;;;;;;;;;;5032672;28;19982;-61
2022/10/20 03:06:58;;;;;;;;;;;;;;;;;;5034990;28;19971;-61
2022/10/20 03:09:23;;;;;;;;;;;;;;;;;;5032342;28;20385;-61
2022/10/20 03:11:48;;;;;;;;;;;;;;;;;;5036079;28;20239;-61
2022/10/20 03:14:14;;;;;;;;;;;;;;;;;;5029508;28;19929;-61
2022/10/20 03:16:39;;;;;;;;;;;;;;;;;;5032459;28;19939;-61
2022/10/20 03:19:04;;;;;;;;;;;;;;;;;;5039522;28;19920;-60
2022/10/20 03:21:29;;;;;;;;;;;;;;;;;;5031861;28;20158;-61
2022/10/20 03:23:54;;;;;;;;;;;;;;;;;;5037960;28;20301;-61
2022/10/20 03:26:19;;;;;;;;;;;;;;;;;;5032430;28;19925;-60
2022/10/20 03:28:45;;;;;;;;;;;;;;;;;;5033548;28;19917;-61
2022/10/20 03:31:10;;;;;;;;;;;;;;;;;;5037446;28;20377;-60
2022/10/20 03:33:35;;;;;;;;;;;;;;;;;;5030033;28;19928;-61
2022/10/20 03:36:00;;;;;;;;;;;;;;;;;;5038763;28;19926;-60
2022/10/20 03:38:25;;;;;;;;;;;;;;;;;;5030352;28;20201;-61
2022/10/20 03:40:51;;;;;;;;;;;;;;;;;;5029635;28;20525;-62
2022/10/20 03:43:16;;;;;;;;;;;;;;;;;;5037998;28;19917;-60
2022/10/20 03:45:41;;;;;;;;;;;;;;;;;;5030540;28;20602;-61
2022/10/20 03:48:06;;;;;;;;;;;;;;;;;;5037919;28;20408;-61
2022/10/20 03:50:31;;;;;;;;;;;;;;;;;;5027940;28;20331;-61
2022/10/20 03:52:56;;;;;;;;;;;;;;;;;;5031947;28;19929;-60
2022/10/20 03:55:22;;;;;;;;;;;;;;;;;;5035154;28;19919;-60
2022/10/20 03:57:47;;;;;;;;;;;;;;;;;;5030093;28;19930;-62
2022/10/20 04:00:12;;;;;;;;;;;;;;;;;;5037956;28;19916;-61
2022/10/20 04:02:37;;;;;;;;;;;;;;;;;;5030588;28;20035;-60
2022/10/20 04:05:02;;;;;;;;;;;;;;;;;;5030895;28;19940;-60
2022/10/20 04:07:27;;;;;;;;;;;;;;;;;;5036393;28;20386;-62
2022/10/20 04:09:53;;;;;;;;;;;;;;;;;;5029914;28;20349;-60
2022/10/20 04:12:18;;;;;;;;;;;;;;;;;;5035917;28;20031;-60
2022/10/20 04:14:43;;;;;;;;;;;;;;;;;;5028177;28;19960;-61
2022/10/20 04:17:08;;;;;;;;;;;;;;;;;;5030648;28;19940;-60
2022/10/20 04:19:33;;;;;;;;;;;;;;;;;;5036085;28;20059;-61
2022/10/20 04:21:59;;;;;;;;;;;;;;;;;;5032029;28;19921;-60
2022/10/20 04:24:24;;;;;;;;;;;;;;;;;;5036074;28;19932;-61
2022/10/20 04:26:49;;;;;;;;;;;;;;;;;;5030694;28;19917;-61
2022/10/20 04:29:14;;;;;;;;;;;;;;;;;;5029421;28;19917;-62
2022/10/20 04:31:39;;;;;;;;;;;;;;;;;;5038512;28;20421;-61
2022/10/20 04:34:04;;;;;;;;;;;;;;;;;;5032048;28;20242;-60
2022/10/20 04:36:30;;;;;;;;;;;;;;;;;;5037136;28;19944;-61
2022/10/20 04:38:55;;;;;;;;;;;;;;;;;;5031742;28;20336;-62
2022/10/20 04:41:20;;;;;;;;;;;;;;;;;;5030405;28;19920;-59
2022/10/20 04:43:45;;;;;;;;;;;;;;;;;;5036085;28;19916;-61
2022/10/20 04:46:11;;;;;;;;;;;;;;;;;;5030227;28;19913;-62
2022/10/20 04:48:36;;;;;;;;;;;;;;;;;;5034442;28;19917;-61
2022/10/20 04:51:01;;;;;;;;;;;;;;;;;;5031976;28;19963;-61
2022/10/20 04:53:26;;;;;;;;;;;;;;;;;;5028789;28;20043;-61
2022/10/20 04:55:51;;;;;;;;;;;;;;;;;;5037341;28;19925;-61
2022/10/20 04:58:17;;;;;;;;;;;;;;;;;;5029621;28;19916;-62
2022/10/20 05:00:42;;;;;;;;;;;;;;;;;;5036739;28;19916;-61
2022/10/20 05:03:07;;;;;;;;;;;;;;;;;;5028958;28;20385;-62
2022/10/20 05:05:32;;;;;;;;;;;;;;;;;;5030541;28;19916;-62
2022/10/20 05:07:57;;;;;;;;;;;;;;;;;;5039845;28;19917;-61
2022/10/20 05:10:22;;;;;;;;;;;;;;;;;;5024918;28;19925;-62
2022/10/20 05:12:48;;;;;;;;;;;;;;;;;;5032569;28;19931;-62
2022/10/20 05:15:13;;;;;;;;;;;;;;;;;;5028779;28;19917;-62
2022/10/20 05:17:38;;;;;;;;;;;;;;;;;;5030643;28;19924;-62
2022/10/20 05:20:03;;;;;;;;;;;;;;;;;;5037921;28;19929;-62
2022/10/20 05:22:28;;;;;;;;;;;;;;;;;;5034121;28;19921;-62
2022/10/20 05:24:54;;;;;;;;;;;;;;;;;;5040654;28;20475;-62
2022/10/20 05:27:19;;;;;;;;;;;;;;;;;;5035427;28;19921;-61
2022/10/20 05:29:44;;;;;;;;;;;;;;;;;;5033401;28;19995;-62
2022/10/20 05:32:09;;;;;;;;;;;;;;;;;;5042367;28;20406;-61
2022/10/20 05:34:34;;;;;;;;;;;;;;;;;;5041215;28;20370;-61
2022/10/20 05:36:59;;;;;;;;;;;;;;;;;;5042815;28;19970;-61
2022/10/20 05:39:25;;;;;;;;;;;;;;;;;;5040878;28;19969;-61
2022/10/20 05:41:50;;;;;;;;;;;;;;;;;;5043740;28;20388;-61
2022/10/20 05:44:15;;;;;;;;;;;;;;;;;;5044941;28;19960;-61
2022/10/20 05:46:41;;;;;;;;;;;;;;;;;;5048366;28;19963;-61
2022/10/20 05:49:06;;;;;;;;;;;;;;;;;;5047216;28;20392;-61
2022/10/20 05:51:31;;;;;;;;;;;;;;;;;;5046980;28;19935;-62
2022/10/20 05:53:57;;;;;;;;;;;;;;;;;;5044338;28;19960;-61
2022/10/20 05:56:22;;;;;;;;;;;;;;;;;;5044813;28;19962;-61
2022/10/20 05:58:47;;;;;;;;;;;;;;;;;;5047895;28;20390;-61
2022/10/20 06:01:16;;;;;;;;;;;;;;;;;;5047978;28;20540;-62
2022/10/20 06:03:42;;;;;;;;;;;;;;;;;;5047725;28;20293;-61
2022/10/20 06:06:07;;;;;;;;;;;;;;;;;;5046763;28;20441;-61
2022/10/20 06:08:32;;;;;;;;;;;;;;;;;;5047833;28;19924;-61
2022/10/20 06:10:57;;;;;;;;;;;;;;;;;;5047110;28;20035;-61
2022/10/20 06:13:22;;;;;;;;;;;;;;;;;;5047633;28;20019;-60
2022/10/20 06:15:48;;;;;;;;;;;;;;;;;;5045931;28;20290;-61
2022/10/20 06:18:13;;;;;;;;;;;;;;;;;;5046043;28;19948;-62
2022/10/20 06:20:38;;;;;;;;;;;;;;;;;;5047323;28;19916;-61
2022/10/20 06:23:03;;;;;;;;;;;;;;;;;;5045978;28;19916;-60
2022/10/20 06:25:28;;;;;;;;;;;;;;;;;;5046876;28;19916;-60
2022/10/20 06:27:53;;;;;;;;;;;;;;;;;;5046406;28;20007;-60
2022/10/20 06:30:19;;;;;;;;;;;;;;;;;;5045292;28;19917;-61
2022/10/20 06:32:44;;;;;;;;;;;;;;;;;;5046788;28;20433;-61
2022/10/20 06:35:09;;;;;;;;;;;;;;;;;;5045692;28;20446;-61
2022/10/20 06:37:35;;;;;;;;;;;;;;;;;;5047432;28;19963;-61
2022/10/20 06:40:00;;;;;;;;;;;;;;;;;;5047051;28;19923;-61
2022/10/20 06:42:25;;;;;;;;;;;;;;;;;;5046075;28;19917;-62
2022/10/20 06:44:53;;;;;;;;;;;;;;;;;;5044912;28;19924;-61
2022/10/20 06:47:19;;;;;;;;;;;;;;;;;;5046835;28;20000;-61
2022/10/20 06:49:44;;;;;;;;;;;;;;;;;;5047407;28;20036;-62
2022/10/20 06:52:10;;;;;;;;;;;;;;;;;;5046160;28;20332;-62
2022/10/20 06:54:35;;;;;;;;;;;;;;;;;;5046185;28;19925;-61
2022/10/20 06:57:01;;;;;;;;;;;;;;;;;;5045796;28;19916;-62
2022/10/20 06:59:26;;;;;;;;;;;;;;;;;;5045450;28;20408;-61
2022/10/20 07:01:51;;;;;;;;;;;;;;;;;;5045370;28;19964;-61
2022/10/20 07:04:16;;;;;;;;;;;;;;;;;;5045520;28;19912;-61
2022/10/20 07:06:42;;;;;;;;;;;;;;;;;;5045255;28;20055;-62
2022/10/20 07:09:07;;;;;;;;;;;;;;;;;;5046557;28;19975;-61
2022/10/20 07:11:32;;;;;;;;;;;;;;;;;;5045642;28;19917;-61
2022/10/20 07:13:57;;;;;;;;;;;;;;;;;;5045430;28;20031;-61
2022/10/20 07:16:22;;;;;;;;;;;;;;;;;;5045895;28;19916;-61
2022/10/20 07:18:48;;;;;;;;;;;;;;;;;;5044679;28;19940;-61
2022/10/20 07:21:13;;;;;;;;;;;;;;;;;;5045093;28;19923;-61
2022/10/20 07:23:38;;;;;;;;;;;;;;;;;;5045793;28;19924;-61
2022/10/20 07:26:03;;;;;;;;;;;;;;;;;;5045126;28;19924;-61
2022/10/20 07:28:28;;;;;;;;;;;;;;;;;;5045811;28;20035;-61
2022/10/20 07:30:54;;;;;;;;;;;;;;;;;;5045262;28;19921;-61
2022/10/20 07:33:19;;;;;;;;;;;;;;;;;;5044663;28;19931;-62
2022/10/20 07:35:44;;;;;;;;;;;;;;;;;;5047213;28;20025;-61
2022/10/20 07:38:09;;;;;;;;;;;;;;;;;;5045572;28;19921;-62
2022/10/20 07:40:34;;;;;;;;;;;;;;;;;;5047434;28;19964;-61
2022/10/20 07:43:00;;;;;;;;;;;;;;;;;;5045708;28;19917;-62
2022/10/20 07:45:25;;;;;;;;;;;;;;;;;;5043596;28;19913;-61
2022/10/20 07:47:50;;;;;;;;;;;;;;;;;;5045292;28;19981;-62
2022/10/20 07:50:15;;;;;;;;;;;;;;;;;;5045151;28;20339;-60
2022/10/20 07:52:40;;;;;;;;;;;;;;;;;;5044950;28;19917;-61
2022/10/20 07:55:05;;;;;;;;;;;;;;;;;;5044942;28;19917;-61
2022/10/20 07:57:31;;;;;;;;;;;;;;;;;;5046115;28;19923;-61
2022/10/20 07:59:56;;;;;;;;;;;;;;;;;;5042575;28;19966;-61
2022/10/20 08:02:22;;;;;;;;;;;;;;;;;;5044323;28;20835;-61
2022/10/20 08:04:47;;;;;;;;;;;;;;;;;;5045881;28;20274;-63
2022/10/20 08:07:12;;;;;;;;;;;;;;;;;;5044988;28;19920;-63
2022/10/20 08:09:38;;;;;;;;;;;;;;;;;;5046369;28;19975;-63
2022/10/20 08:12:03;;;;;;;;;;;;;;;;;;5043685;28;19923;-63
2022/10/20 08:14:34;;;;;;;;;;;;;;;;;;5041234;28;19952;-63
2022/10/20 08:16:59;;;;;;;;;;;;;;;;;;5043747;28;20611;-62
2022/10/20 08:19:24;;;;;;;;;;;;;;;;;;5044593;28;19921;-62
2022/10/20 08:21:49;;;;;;;;;;;;;;;;;;5046508;28;19944;-62
2022/10/20 08:24:14;;;;;;;;;;;;;;;;;;5044734;28;19921;-63
2022/10/20 08:26:39;;;;;;;;;;;;;;;;;;5044407;28;20344;-62
2022/10/20 08:29:05;;;;;;;;;;;;;;;;;;5045089;28;20791;-62
2022/10/20 08:31:30;;;;;;;;;;;;;;;;;;5044410;28;20649;-62
2022/10/20 08:33:56;;;;;;;;;;;;;;;;;;5043981;28;20020;-63
2022/10/20 08:36:21;;;;;;;;;;;;;;;;;;5043643;28;19917;-63
2022/10/20 08:38:46;;;;;;;;;;;;;;;;;;5042240;28;19917;-62
2022/10/20 08:41:11;;;;;;;;;;;;;;;;;;5045265;28;19912;-63
2022/10/20 08:43:36;;;;;;;;;;;;;;;;;;5043741;28;19995;-62
2022/10/20 08:46:02;;;;;;;;;;;;;;;;;;5043059;28;20563;-62
2022/10/20 08:48:27;;;;;;;;;;;;;;;;;;5043958;28;19917;-63
2022/10/20 08:50:52;;;;;;;;;;;;;;;;;;5043231;28;19966;-62
2022/10/20 08:53:17;;;;;;;;;;;;;;;;;;5043516;28;19925;-63
2022/10/20 08:55:42;;;;;;;;;;;;;;;;;;5042563;28;20370;-60
2022/10/20 08:58:07;;;;;;;;;;;;;;;;;;5046894;28;19925;-62
2022/10/20 09:00:33;;;;;;;;;;;;;;;;;;5048846;28;19917;-62
2022/10/20 09:02:58;;;;;;;;;;;;;;;;;;5049226;28;19923;-61
2022/10/20 09:05:23;;;;;;;;;;;;;;;;;;5047415;28;20240;-61
2022/10/20 09:07:48;;;;;;;;;;;;;;;;;;5048685;28;20358;-61
2022/10/20 09:10:14;;;;;;;;;;;;;;;;;;5048129;28;19927;-62
2022/10/20 09:12:39;;;;;;;;;;;;;;;;;;5036369;28;20220;-61
2022/10/20 09:15:04;;;;;;;;;;;;;;;;;;5048912;28;20357;-61
2022/10/20 09:17:29;;;;;;;;;;;;;;;;;;5048288;28;19956;-61
2022/10/20 09:19:54;;;;;;;;;;;;;;;;;;5048047;28;19920;-60
2022/10/20 09:22:21;;;;;;;;;;;;;;;;;;5049625;28;20361;-61
2022/10/20 09:24:46;;;;;;;;;;;;;;;;;;5047554;28;20317;-61
2022/10/20 09:27:11;;;;;;;;;;;;;;;;;;5047260;28;20050;-61
2022/10/20 09:29:36;;;;;;;;;;;;;;;;;;5046918;28;19917;-61
2022/10/20 09:32:01;;;;;;;;;;;;;;;;;;5046708;28;19923;-61
2022/10/20 09:34:27;;;;;;;;;;;;;;;;;;5047990;28;19924;-61
2022/10/20 09:36:52;;;;;;;;;;;;;;;;;;5045810;28;19989;-61
2022/10/20 09:39:17;;;;;;;;;;;;;;;;;;5045727;28;19944;-61
2022/10/20 09:41:42;;;;;;;;;;;;;;;;;;5046934;28;20309;-61
2022/10/20 09:44:07;;;;;;;;;;;;;;;;;;5047284;28;20293;-61
2022/10/20 09:46:33;;;;;;;;;;;;;;;;;;5048096;28;19921;-61
2022/10/20 09:48:58;;;;;;;;;;;;;;;;;;5047591;28;19928;-61
2022/10/20 09:51:23;;;;;;;;;;;;;;;;;;5046384;28;19923;-61
2022/10/20 09:53:48;;;;;;;;;;;;;;;;;;5047570;28;19932;-62
2022/10/20 09:56:13;;;;;;;;;;;;;;;;;;5045771;28;20451;-61
2022/10/20 09:58:40;;;;;;;;;;;;;;;;;;5047806;28;19919;-61
2022/10/20 10:01:06;;;;;;;;;;;;;;;;;;5042627;28;19927;-62
2022/10/20 10:03:31;;;;;;;;;;;;;;;;;;5046184;28;19925;-62
2022/10/20 10:05:56;;;;;;;;;;;;;;;;;;5045688;28;19964;-61
2022/10/20 10:08:21;;;;;;;;;;;;;;;;;;5046407;28;19921;-61
2022/10/20 10:10:46;;;;;;;;;;;;;;;;;;5046590;28;20009;-62
2022/10/20 10:13:12;;;;;;;;;;;;;;;;;;5046641;28;20209;-61
2022/10/20 10:15:37;;;;;;;;;;;;;;;;;;5047020;28;19990;-62
2022/10/20 10:18:02;;;;;;;;;;;;;;;;;;5046221;28;19924;-61
2022/10/20 10:20:27;;;;;;;;;;;;;;;;;;5047564;28;19971;-62
2022/10/20 10:22:52;;;;;;;;;;;;;;;;;;5045427;28;19923;-61
2022/10/20 10:25:17;;;;;;;;;;;;;;;;;;5045461;28;20490;-61
2022/10/20 10:27:43;;;;;;;;;;;;;;;;;;5044239;28;19917;-62
2022/10/20 10:30:08;;;;;;;;;;;;;;;;;;5045363;28;19966;-61
2022/10/20 10:32:33;;;;;;;;;;;;;;;;;;5046497;28;19923;-61
2022/10/20 10:34:59;;;;;;;;;;;;;;;;;;5046109;28;20281;-62
2022/10/20 10:37:24;;;;;;;;;;;;;;;;;;5046431;28;19967;-61
2022/10/20 10:39:49;;;;;;;;;;;;;;;;;;5046090;28;19913;-63
2022/10/20 10:42:15;;;;;;;;;;;;;;;;;;5044259;28;20285;-62
2022/10/20 10:44:40;;;;;;;;;;;;;;;;;;5046121;28;20408;-61
2022/10/20 10:47:05;;;;;;;;;;;;;;;;;;5045178;28;20389;-62
2022/10/20 10:49:31;;;;;;;;;;;;;;;;;;5047020;28;19916;-61
2022/10/20 10:51:56;;;;;;;;;;;;;;;;;;5045027;28;20365;-62
2022/10/20 10:54:21;;;;;;;;;;;;;;;;;;5046401;28;20278;-63
2022/10/20 10:56:46;;;;;;;;;;;;;;;;;;5045985;28;19916;-63
2022/10/20 10:59:11;;;;;;;;;;;;;;;;;;5043470;28;19917;-62
2022/10/20 11:01:37;;;;;;;;;;;;;;;;;;5046116;28;20319;-61
2022/10/20 11:04:02;;;;;;;;;;;;;;;;;;5044297;28;19924;-61
2022/10/20 11:06:27;;;;;;;;;;;;;;;;;;5045861;28;19967;-62
2022/10/20 11:08:52;;;;;;;;;;;;;;;;;;5046157;28;19916;-62
2022/10/20 11:11:17;;;;;;;;;;;;;;;;;;5045731;28;20000;-62
2022/10/20 11:13:42;;;;;;;;;;;;;;;;;;5046459;28;20499;-62
2022/10/20 11:16:08;;;;;;;;;;;;;;;;;;5044707;28;19923;-62
2022/10/20 11:18:33;;;;;;;;;;;;;;;;;;5044250;28;19913;-61
2022/10/20 11:20:58;;;;;;;;;;;;;;;;;;5045056;28;20023;-61
2022/10/20 11:23:23;;;;;;;;;;;;;;;;;;5045816;28;20354;-62
2022/10/20 11:25:48;;;;;;;;;;;;;;;;;;5045988;28;19917;-62
2022/10/20 11:28:14;;;;;;;;;;;;;;;;;;5043469;28;19916;-62
2022/10/20 11:30:39;;;;;;;;;;;;;;;;;;5045452;28;19917;-63
2022/10/20 11:33:04;;;;;;;;;;;;;;;;;;5043469;28;19960;-63
2022/10/20 11:35:29;;;;;;;;;;;;;;;;;;5040269;28;19921;-62
2022/10/20 11:37:54;;;;;;;;;;;;;;;;;;5042432;28;20376;-62
2022/10/20 11:40:20;;;;;;;;;;;;;;;;;;5034414;28;20228;-62
2022/10/20 11:42:45;;;;;;;;;;;;;;;;;;5040714;28;19967;-62
2022/10/20 11:45:10;;;;;;;;;;;;;;;;;;5041091;28;20007;-62
2022/10/20 11:47:35;;;;;;;;;;;;;;;;;;5039721;28;19966;-62
2022/10/20 11:50:00;;;;;;;;;;;;;;;;;;5038160;28;19917;-61
2022/10/20 11:52:26;;;;;;;;;;;;;;;;;;5037678;28;19979;-62
2022/10/20 11:54:51;;;;;;;;;;;;;;;;;;5034012;28;19928;-62
2022/10/20 11:57:17;;;;;;;;;;;;;;;;;;5043818;28;19920;-61
2022/10/20 11:59:42;;;;;;;;;;;;;;;;;;5042185;28;20022;-62
2022/10/20 12:02:07;;;;;;;;;;;;;;;;;;5042213;28;20138;-62
2022/10/20 12:04:32;;;;;;;;;;;;;;;;;;5036951;28;19917;-61
2022/10/20 12:06:57;;;;;;;;;;;;;;;;;;5042564;28;20369;-62
2022/10/20 12:09:23;;;;;;;;;;;;;;;;;;5041545;28;19921;-62
2022/10/20 12:11:48;;;;;;;;;;;;;;;;;;5041874;28;19986;-62
2022/10/20 12:14:13;;;;;;;;;;;;;;;;;;5038584;28;19924;-63
2022/10/20 12:16:38;;;;;;;;;;;;;;;;;;5042575;28;19920;-62
2022/10/20 12:19:04;;;;;;;;;;;;;;;;;;5042012;28;20586;-62
2022/10/20 12:21:29;;;;;;;;;;;;;;;;;;5041294;28;19916;-62
2022/10/20 12:24:01;;;;;;;;;;;;;;;;;;5041226;28;20513;-62
2022/10/20 12:26:26;;;;;;;;;;;;;;;;;;5038750;28;20681;-62
2022/10/20 12:28:51;;;;;;;;;;;;;;;;;;5040234;28;19923;-62
2022/10/20 12:31:16;;;;;;;;;;;;;;;;;;5041466;28;19917;-61
2022/10/20 12:33:41;;;;;;;;;;;;;;;;;;5038405;28;19929;-61
2022/10/20 12:36:07;;;;;;;;;;;;;;;;;;5042194;28;19948;-63
2022/10/20 12:38:32;;;;;;;;;;;;;;;;;;5041495;28;19917;-62
2022/10/20 12:40:57;;;;;;;;;;;;;;;;;;5042001;28;20281;-62
2022/10/20 12:43:22;;;;;;;;;;;;;;;;;;5042408;28;19917;-62
2022/10/20 12:45:47;;;;;;;;;;;;;;;;;;5041103;28;20036;-60
2022/10/20 12:48:13;;;;;;;;;;;;;;;;;;5042713;28;19939;-62
2022/10/20 12:50:38;;;;;;;;;;;;;;;;;;5041531;28;19920;-62
2022/10/20 12:53:03;;;;;;;;;;;;;;;;;;5042444;28;19925;-61
2022/10/20 12:55:28;;;;;;;;;;;;;;;;;;5041845;28;20047;-61
2022/10/20 12:57:53;;;;;;;;;;;;;;;;;;5040977;28;20272;-62
2022/10/20 13:00:19;;;;;;;;;;;;;;;;;;5041687;28;19916;-61
2022/10/20 13:02:44;;;;;;;;;;;;;;;;;;5043302;28;19989;-62
2022/10/20 13:05:09;;;;;;;;;;;;;;;;;;5042177;28;20365;-61
2022/10/20 13:07:34;;;;;;;;;;;;;;;;;;5041293;28;20026;-61
2022/10/20 13:09:59;;;;;;;;;;;;;;;;;;5040488;28;20273;-62
2022/10/20 13:12:25;;;;;;;;;;;;;;;;;;5042676;28;19925;-61
2022/10/20 13:14:50;;;;;;;;;;;;;;;;;;5040504;28;19925;-61
2022/10/20 13:17:15;;;;;;;;;;;;;;;;;;5040934;28;19947;-62
2022/10/20 13:19:41;;;;;;;;;;;;;;;;;;5042934;28;19920;-62
2022/10/20 13:22:06;;;;;;;;;;;;;;;;;;5039341;28;19909;-62
2022/10/20 13:24:31;;;;;;;;;;;;;;;;;;5039175;28;19916;-63
2022/10/20 13:26:58;;;;;;;;;;;;;;;;;;5038251;28;20365;-62
2022/10/20 13:29:23;;;;;;;;;;;;;;;;;;5038237;28;19917;-61
2022/10/20 13:31:48;;;;;;;;;;;;;;;;;;5040397;28;20460;-62
2022/10/20 13:34:14;;;;;;;;;;;;;;;;;;5040471;28;19924;-62
2022/10/20 13:36:39;;;;;;;;;;;;;;;;;;5041351;28;19917;-62
2022/10/20 13:39:04;;;;;;;;;;;;;;;;;;5039567;28;20487;-61
2022/10/20 13:41:29;;;;;;;;;;;;;;;;;;5024031;28;19927;-62
2022/10/20 13:43:54;;;;;;;;;;;;;;;;;;5037105;28;20415;-62
2022/10/20 13:46:20;;;;;;;;;;;;;;;;;;5046143;28;20280;-61
2022/10/20 13:48:45;;;;;;;;;;;;;;;;;;5046122;28;19920;-62
2022/10/20 13:51:10;;;;;;;;;;;;;;;;;;5044572;28;20376;-61
2022/10/20 13:53:35;;;;;;;;;;;;;;;;;;5046065;28;19935;-63
2022/10/20 13:56:00;;;;;;;;;;;;;;;;;;5041900;28;19916;-63
2022/10/20 13:58:26;;;;;;;;;;;;;;;;;;5042843;28;20336;-63
2022/10/20 14:00:51;;;;;;;;;;;;;;;;;;5039463;28;19932;-63
2022/10/20 14:03:16;;;;;;;;;;;;;;;;;;5042627;28;19917;-63
2022/10/20 14:05:41;;;;;;;;;;;;;;;;;;5042529;28;19917;-63
2022/10/20 14:08:07;;;;;;;;;;;;;;;;;;5041672;28;20279;-62
2022/10/20 14:10:32;;;;;;;;;;;;;;;;;;5042370;28;19962;-62
2022/10/20 14:12:57;;;;;;;;;;;;;;;;;;5043222;28;19917;-65
2022/10/20 14:15:22;;;;;;;;;;;;;;;;;;5043804;28;19917;-62
2022/10/20 14:17:47;;;;;;;;;;;;;;;;;;5040845;28;19923;-64
2022/10/20 14:20:13;;;;;;;;;;;;;;;;;;5042838;28;19923;-62
2022/10/20 14:22:38;;;;;;;;;;;;;;;;;;5043492;28;20475;-62
2022/10/20 14:25:04;;;;;;;;;;;;;;;;;;5042440;28;20390;-63
2022/10/20 14:27:29;;;;;;;;;;;;;;;;;;5043717;28;19963;-62
2022/10/20 14:29:54;;;;;;;;;;;;;;;;;;5042587;28;19956;-62
2022/10/20 14:32:19;;;;;;;;;;;;;;;;;;5043610;28;19924;-60
2022/10/20 14:34:45;;;;;;;;;;;;;;;;;;5043968;28;19927;-61
2022/10/20 14:37:10;;;;;;;;;;;;;;;;;;5043162;28;19916;-62
2022/10/20 14:39:35;;;;;;;;;;;;;;;;;;5044636;28;20340;-61
2022/10/20 14:42:00;;;;;;;;;;;;;;;;;;5036371;28;20016;-61
2022/10/20 14:44:25;;;;;;;;;;;;;;;;;;5043974;28;19917;-61
2022/10/20 14:46:52;;;;;;;;;;;;;;;;;;5043612;28;19924;-61
2022/10/20 14:49:17;;;;;;;;;;;;;;;;;;5042988;28;20343;-62
2022/10/20 14:51:46;;;;;;;;;;;;;;;;;;5046522;28;20338;-61
2022/10/20 14:54:12;;;;;;;;;;;;;;;;;;5044026;28;20377;-61
2022/10/20 14:56:37;;;;;;;;;;;;;;;;;;5045483;28;19992;-61
2022/10/20 14:59:02;;;;;;;;;;;;;;;;;;5045915;28;19913;-60
2022/10/20 15:01:28;;;;;;;;;;;;;;;;;;5044353;28;19924;-61
2022/10/20 15:03:53;;;;;;;;;;;;;;;;;;5043523;28;20407;-62
2022/10/20 15:06:18;;;;;;;;;;;;;;;;;;5041444;28;19916;-62
2022/10/20 15:08:44;;;;;;;;;;;;;;;;;;5045586;28;19917;-61
2022/10/20 15:11:09;;;;;;;;;;;;;;;;;;5044839;28;19931;-61
2022/10/20 15:13:34;;;;;;;;;;;;;;;;;;5043304;28;19931;-61
2022/10/20 15:15:59;;;;;;;;;;;;;;;;;;5045601;28;19921;-62
2022/10/20 15:18:24;;;;;;;;;;;;;;;;;;5042958;28;20000;-61
2022/10/20 15:20:50;;;;;;;;;;;;;;;;;;5044383;28;20373;-62
2022/10/20 15:23:15;;;;;;;;;;;;;;;;;;5044548;28;20035;-62
2022/10/20 15:25:41;;;;;;;;;;;;;;;;;;5043462;28;19921;-61
2022/10/20 15:28:06;;;;;;;;;;;;;;;;;;5044788;28;19921;-62
2022/10/20 15:30:31;;;;;;;;;;;;;;;;;;5043650;28;19916;-61
2022/10/20 15:32:56;;;;;;;;;;;;;;;;;;5045708;28;19916;-61
2022/10/20 15:35:23;;;;;;;;;;;;;;;;;;5044740;28;19917;-61
2022/10/20 15:37:48;;;;;;;;;;;;;;;;;;5045301;28;20424;-61
2022/10/20 15:40:13;;;;;;;;;;;;;;;;;;5038929;28;19917;-62
2022/10/20 15:42:38;;;;;;;;;;;;;;;;;;5043235;28;20568;-61
2022/10/20 15:45:03;;;;;;;;;;;;;;;;;;5025771;28;19978;-62
2022/10/20 15:47:29;;;;;;;;;;;;;;;;;;5042801;28;19916;-62
2022/10/20 15:49:54;;;;;;;;;;;;;;;;;;5043627;28;20309;-61
2022/10/20 15:52:20;;;;;;;;;;;;;;;;;;5043104;28;20007;-62
2022/10/20 15:54:45;;;;;;;;;;;;;;;;;;5040232;28;20494;-62
2022/10/20 15:57:10;;;;;;;;;;;;;;;;;;5043609;28;20250;-63
2022/10/20 15:59:35;;;;;;;;;;;;;;;;;;5041880;28;19978;-62
2022/10/20 16:02:01;;;;;;;;;;;;;;;;;;5042808;28;20783;-62
2022/10/20 16:04:26;;;;;;;;;;;;;;;;;;5040876;28;20039;-61
2022/10/20 16:06:52;;;;;;;;;;;;;;;;;;5035568;28;19921;-62
2022/10/20 16:09:18;;;;;;;;;;;;;;;;;;5030276;28;19917;-63
2022/10/20 16:11:43;;;;;;;;;;;;;;;;;;5039328;28;19932;-63
2022/10/20 16:14:08;;;;;;;;;;;;;;;;;;5030982;28;19929;-62
2022/10/20 16:16:33;;;;;;;;;;;;;;;;;;5039933;28;19978;-62
2022/10/20 16:18:59;;;;;;;;;;;;;;;;;;5033092;28;19963;-63
2022/10/20 16:21:24;;;;;;;;;;;;;;;;;;5034835;28;19967;-61
2022/10/20 16:23:49;;;;;;;;;;;;;;;;;;5037710;28;20122;-61
2022/10/20 16:26:14;;;;;;;;;;;;;;;;;;5032364;28;20190;-61
2022/10/20 16:28:39;;;;;;;;;;;;;;;;;;5039421;28;19917;-64
2022/10/20 16:31:05;;;;;;;;;;;;;;;;;;5032718;28;19917;-62